FCBB Airport Informations

Runway Information
Runway 05 Length 10827 ft width 148 ft
Elevation 1030 ft Threshold ft Heading 50
Runway 23 Length 10827 ft Width 148 ft
Elevation 1047 ft Threshold ft Heading 230
Airport Frequencies
Type ACC Name BRAZZAVILL Frequency 121.1 MHZ
Type INFO Name BRAZZAVILL Frequency 549.3 MHZ
Type TWR Name BRAZZAVILL Frequency 121.1 MHZ
Airport Navaids
Type VOR-DME Name Brazzaville Maya Maya Frequency 113100 KHZ
Airport Weather Information & NOTAM
ADDS - METARS form results

(1815 UTC 16 August 2022)
Data provider http://aviationweather.gov/metar/data/
 
Forecast for: FCBB (BRAZZAVILLE/MAYA, CG)
Text: TAF FCBB 161700Z 1618/1724 26006KT 8000 SCT016
Forecast period: 1800 UTC 16 August 2022 to 0000 UTC 18 August 2022
Forecast type: FROM: standard forecast or significant change
Winds: from the W (260 degrees) at 7 MPH (6 knots; 3.1 m/s)
Visibility: 5 miles (8 km)
Ceiling: at least 12,000 feet AGL
Clouds: scattered clouds at 1600 feet AGL
Weather: no significant weather forecast for this period